sensor_id;sensor_type;location;lat;lon;timestamp;temperature;humidity
4376;DHT22;2202;50.866;12.750;2023-07-31T00:01:12;14.20;81.80
4376;DHT22;2202;50.866;12.750;2023-07-31T00:03:38;14.20;81.40
4376;DHT22;2202;50.866;12.750;2023-07-31T00:06:05;14.20;81.40
4376;DHT22;2202;50.866;12.750;2023-07-31T00:08:32;14.20;82.00
4376;DHT22;2202;50.866;12.750;2023-07-31T00:11:00;14.10;82.60
4376;DHT22;2202;50.866;12.750;2023-07-31T00:13:27;14.10;83.00
4376;DHT22;2202;50.866;12.750;2023-07-31T00:15:54;14.10;83.20
4376;DHT22;2202;50.866;12.750;2023-07-31T00:18:21;14.10;83.20
4376;DHT22;2202;50.866;12.750;2023-07-31T00:20:48;14.10;82.60
4376;DHT22;2202;50.866;12.750;2023-07-31T00:23:15;14.20;82.20
4376;DHT22;2202;50.866;12.750;2023-07-31T00:25:42;14.30;81.40
4376;DHT22;2202;50.866;12.750;2023-07-31T00:28:10;14.40;80.80
4376;DHT22;2202;50.866;12.750;2023-07-31T00:30:37;14.40;80.60
4376;DHT22;2202;50.866;12.750;2023-07-31T00:33:04;14.40;80.60
4376;DHT22;2202;50.866;12.750;2023-07-31T00:35:31;14.50;80.20
4376;DHT22;2202;50.866;12.750;2023-07-31T00:37:58;14.60;79.60
4376;DHT22;2202;50.866;12.750;2023-07-31T00:40:25;14.60;79.60
4376;DHT22;2202;50.866;12.750;2023-07-31T00:42:52;14.60;79.60
4376;DHT22;2202;50.866;12.750;2023-07-31T00:45:20;14.70;79.00
4376;DHT22;2202;50.866;12.750;2023-07-31T00:47:48;14.80;78.60
4376;DHT22;2202;50.866;12.750;2023-07-31T00:50:15;14.80;78.80
4376;DHT22;2202;50.866;12.750;2023-07-31T00:52:42;14.80;78.20
4376;DHT22;2202;50.866;12.750;2023-07-31T00:55:09;14.90;77.80
4376;DHT22;2202;50.866;12.750;2023-07-31T00:57:37;14.90;77.80
4376;DHT22;2202;50.866;12.750;2023-07-31T01:00:05;15.00;77.80
4376;DHT22;2202;50.866;12.750;2023-07-31T01:02:34;15.00;76.80
4376;DHT22;2202;50.866;12.750;2023-07-31T01:05:02;15.00;77.40
4376;DHT22;2202;50.866;12.750;2023-07-31T01:07:38;15.00;77.40
4376;DHT22;2202;50.866;12.750;2023-07-31T01:10:11;15.00;77.00
4376;DHT22;2202;50.866;12.750;2023-07-31T01:12:41;15.00;77.00
4376;DHT22;2202;50.866;12.750;2023-07-31T01:15:09;15.00;77.00
4376;DHT22;2202;50.866;12.750;2023-07-31T01:17:38;15.00;77.00
4376;DHT22;2202;50.866;12.750;2023-07-31T01:20:09;15.00;77.20
4376;DHT22;2202;50.866;12.750;2023-07-31T01:22:54;15.00;77.00
4376;DHT22;2202;50.866;12.750;2023-07-31T01:28:12;15.10;76.00
4376;DHT22;2202;50.866;12.750;2023-07-31T01:30:44;15.10;76.20
4376;DHT22;2202;50.866;12.750;2023-07-31T01:33:14;15.20;76.00
4376;DHT22;2202;50.866;12.750;2023-07-31T01:35:45;15.20;76.00
4376;DHT22;2202;50.866;12.750;2023-07-31T01:38:12;15.20;75.40
4376;DHT22;2202;50.866;12.750;2023-07-31T01:40:41;15.20;76.20
4376;DHT22;2202;50.866;12.750;2023-07-31T01:43:09;15.20;75.40
4376;DHT22;2202;50.866;12.750;2023-07-31T01:45:36;15.20;76.20
4376;DHT22;2202;50.866;12.750;2023-07-31T01:48:03;15.20;77.20
4376;DHT22;2202;50.866;12.750;2023-07-31T01:50:30;15.10;77.80
4376;DHT22;2202;50.866;12.750;2023-07-31T01:52:57;15.10;78.40
4376;DHT22;2202;50.866;12.750;2023-07-31T01:55:24;15.10;79.20
4376;DHT22;2202;50.866;12.750;2023-07-31T01:57:51;15.00;79.60
4376;DHT22;2202;50.866;12.750;2023-07-31T02:00:19;14.90;81.20
4376;DHT22;2202;50.866;12.750;2023-07-31T02:02:46;14.80;81.60
4376;DHT22;2202;50.866;12.750;2023-07-31T02:05:13;14.80;82.60
4376;DHT22;2202;50.866;12.750;2023-07-31T02:07:39;14.70;84.20
4376;DHT22;2202;50.866;12.750;2023-07-31T02:10:07;14.60;85.40
4376;DHT22;2202;50.866;12.750;2023-07-31T02:12:34;14.50;85.60
4376;DHT22;2202;50.866;12.750;2023-07-31T02:15:00;14.40;87.80
4376;DHT22;2202;50.866;12.750;2023-07-31T02:17:29;14.30;89.00
4376;DHT22;2202;50.866;12.750;2023-07-31T02:19:56;14.20;89.80
4376;DHT22;2202;50.866;12.750;2023-07-31T02:22:22;14.20;90.60
4376;DHT22;2202;50.866;12.750;2023-07-31T02:24:49;14.10;90.50
4376;DHT22;2202;50.866;12.750;2023-07-31T02:27:16;14.10;90.30
4376;DHT22;2202;50.866;12.750;2023-07-31T02:29:43;14.10;90.80
4376;DHT22;2202;50.866;12.750;2023-07-31T02:32:10;14.00;91.10
4376;DHT22;2202;50.866;12.750;2023-07-31T02:34:38;14.00;91.70
4376;DHT22;2202;50.866;12.750;2023-07-31T02:37:05;14.00;91.70
4376;DHT22;2202;50.866;12.750;2023-07-31T02:39:32;13.90;92.10
4376;DHT22;2202;50.866;12.750;2023-07-31T02:41:59;13.90;92.10
4376;DHT22;2202;50.866;12.750;2023-07-31T02:44:26;13.90;92.40
4376;DHT22;2202;50.866;12.750;2023-07-31T02:46:53;13.90;92.20
4376;DHT22;2202;50.866;12.750;2023-07-31T02:49:20;13.90;92.40
4376;DHT22;2202;50.866;12.750;2023-07-31T02:51:48;13.90;92.50
4376;DHT22;2202;50.866;12.750;2023-07-31T02:54:15;13.90;92.40
4376;DHT22;2202;50.866;12.750;2023-07-31T02:56:41;13.90;92.40
4376;DHT22;2202;50.866;12.750;2023-07-31T02:59:08;13.90;92.20
4376;DHT22;2202;50.866;12.750;2023-07-31T03:01:35;14.00;91.90
4376;DHT22;2202;50.866;12.750;2023-07-31T03:04:02;14.00;92.20
4376;DHT22;2202;50.866;12.750;2023-07-31T03:06:29;14.00;91.90
4376;DHT22;2202;50.866;12.750;2023-07-31T03:08:57;14.00;92.20
4376;DHT22;2202;50.866;12.750;2023-07-31T03:11:23;14.00;91.80
4376;DHT22;2202;50.866;12.750;2023-07-31T03:13:50;14.00;92.40
4376;DHT22;2202;50.866;12.750;2023-07-31T03:16:17;14.00;92.70
4376;DHT22;2202;50.866;12.750;2023-07-31T03:18:44;13.90;93.10
4376;DHT22;2202;50.866;12.750;2023-07-31T03:21:11;13.90;93.40
4376;DHT22;2202;50.866;12.750;2023-07-31T03:23:38;13.90;93.60
4376;DHT22;2202;50.866;12.750;2023-07-31T03:26:07;13.80;93.90
4376;DHT22;2202;50.866;12.750;2023-07-31T03:28:34;13.80;94.30
4376;DHT22;2202;50.866;12.750;2023-07-31T03:31:01;13.70;94.90
4376;DHT22;2202;50.866;12.750;2023-07-31T03:33:28;13.70;94.90
4376;DHT22;2202;50.866;12.750;2023-07-31T03:35:55;13.70;95.50
4376;DHT22;2202;50.866;12.750;2023-07-31T03:38:22;13.60;95.50
4376;DHT22;2202;50.866;12.750;2023-07-31T03:40:49;13.60;95.60
4376;DHT22;2202;50.866;12.750;2023-07-31T03:43:17;13.60;95.80
4376;DHT22;2202;50.866;12.750;2023-07-31T03:45:44;13.60;95.90
4376;DHT22;2202;50.866;12.750;2023-07-31T03:48:11;13.50;96.20
4376;DHT22;2202;50.866;12.750;2023-07-31T03:50:38;13.60;96.00
4376;DHT22;2202;50.866;12.750;2023-07-31T03:53:05;13.60;95.70
4376;DHT22;2202;50.866;12.750;2023-07-31T03:55:31;13.60;96.10
4376;DHT22;2202;50.866;12.750;2023-07-31T03:57:58;13.60;95.90
4376;DHT22;2202;50.866;12.750;2023-07-31T04:00:27;13.60;96.10
4376;DHT22;2202;50.866;12.750;2023-07-31T04:02:54;13.60;96.30
4376;DHT22;2202;50.866;12.750;2023-07-31T04:05:21;13.60;96.00
4376;DHT22;2202;50.866;12.750;2023-07-31T04:07:48;13.70;96.10
4376;DHT22;2202;50.866;12.750;2023-07-31T04:10:15;13.60;96.10
4376;DHT22;2202;50.866;12.750;2023-07-31T04:12:42;13.60;96.20
4376;DHT22;2202;50.866;12.750;2023-07-31T04:15:09;13.70;96.20
4376;DHT22;2202;50.866;12.750;2023-07-31T04:17:37;13.70;95.90
4376;DHT22;2202;50.866;12.750;2023-07-31T04:20:05;13.70;96.00
4376;DHT22;2202;50.866;12.750;2023-07-31T04:22:32;13.70;96.30
4376;DHT22;2202;50.866;12.750;2023-07-31T04:24:59;13.70;96.40
4376;DHT22;2202;50.866;12.750;2023-07-31T04:27:26;13.70;96.60
4376;DHT22;2202;50.866;12.750;2023-07-31T04:29:52;13.70;96.50
4376;DHT22;2202;50.866;12.750;2023-07-31T04:32:19;13.70;96.90
4376;DHT22;2202;50.866;12.750;2023-07-31T04:34:47;13.70;96.40
4376;DHT22;2202;50.866;12.750;2023-07-31T04:37:14;13.80;96.60
4376;DHT22;2202;50.866;12.750;2023-07-31T04:39:41;13.80;96.50
4376;DHT22;2202;50.866;12.750;2023-07-31T04:42:08;13.80;96.20
4376;DHT22;2202;50.866;12.750;2023-07-31T04:44:35;13.80;96.10
4376;DHT22;2202;50.866;12.750;2023-07-31T04:47:02;13.90;96.30
4376;DHT22;2202;50.866;12.750;2023-07-31T04:49:29;13.90;96.00
4376;DHT22;2202;50.866;12.750;2023-07-31T04:51:57;14.00;96.20
4376;DHT22;2202;50.866;12.750;2023-07-31T04:54:24;14.00;96.00
4376;DHT22;2202;50.866;12.750;2023-07-31T04:56:51;14.10;95.70
4376;DHT22;2202;50.866;12.750;2023-07-31T04:59:18;14.10;95.50
4376;DHT22;2202;50.866;12.750;2023-07-31T05:01:45;14.20;95.50
4376;DHT22;2202;50.866;12.750;2023-07-31T05:04:13;14.30;95.70
4376;DHT22;2202;50.866;12.750;2023-07-31T05:06:40;14.30;94.90
4376;DHT22;2202;50.866;12.750;2023-07-31T05:09:08;14.40;94.80
4376;DHT22;2202;50.866;12.750;2023-07-31T05:11:36;14.40;94.60
4376;DHT22;2202;50.866;12.750;2023-07-31T05:14:02;14.40;94.30
4376;DHT22;2202;50.866;12.750;2023-07-31T05:16:29;14.40;94.20
4376;DHT22;2202;50.866;12.750;2023-07-31T05:18:56;14.40;94.20
4376;DHT22;2202;50.866;12.750;2023-07-31T05:21:23;14.40;94.30
4376;DHT22;2202;50.866;12.750;2023-07-31T05:23:50;14.40;94.30
4376;DHT22;2202;50.866;12.750;2023-07-31T05:26:18;14.50;94.20
4376;DHT22;2202;50.866;12.750;2023-07-31T05:28:45;14.50;94.00
4376;DHT22;2202;50.866;12.750;2023-07-31T05:31:12;14.60;93.50
4376;DHT22;2202;50.866;12.750;2023-07-31T05:33:39;14.70;93.20
4376;DHT22;2202;50.866;12.750;2023-07-31T05:36:06;14.60;93.40
4376;DHT22;2202;50.866;12.750;2023-07-31T05:38:32;14.70;93.40
4376;DHT22;2202;50.866;12.750;2023-07-31T05:40:59;14.70;93.70
4376;DHT22;2202;50.866;12.750;2023-07-31T05:43:27;14.70;93.70
4376;DHT22;2202;50.866;12.750;2023-07-31T05:45:54;14.70;93.30
4376;DHT22;2202;50.866;12.750;2023-07-31T05:48:21;14.70;92.90
4376;DHT22;2202;50.866;12.750;2023-07-31T05:50:48;14.80;93.00
4376;DHT22;2202;50.866;12.750;2023-07-31T05:53:15;14.70;92.90
4376;DHT22;2202;50.866;12.750;2023-07-31T05:55:42;14.80;92.20
4376;DHT22;2202;50.866;12.750;2023-07-31T05:58:08;14.80;92.10
4376;DHT22;2202;50.866;12.750;2023-07-31T06:00:37;14.80;92.40
4376;DHT22;2202;50.866;12.750;2023-07-31T06:03:03;14.80;92.80
4376;DHT22;2202;50.866;12.750;2023-07-31T06:05:30;14.80;92.40
4376;DHT22;2202;50.866;12.750;2023-07-31T06:07:57;14.90;91.60
4376;DHT22;2202;50.866;12.750;2023-07-31T06:10:24;14.90;92.10
4376;DHT22;2202;50.866;12.750;2023-07-31T06:12:51;15.00;92.00
4376;DHT22;2202;50.866;12.750;2023-07-31T06:15:18;15.00;91.80
4376;DHT22;2202;50.866;12.750;2023-07-31T06:17:47;15.00;91.90
4376;DHT22;2202;50.866;12.750;2023-07-31T06:20:13;15.10;91.60
4376;DHT22;2202;50.866;12.750;2023-07-31T06:22:40;15.10;91.60
4376;DHT22;2202;50.866;12.750;2023-07-31T06:25:07;15.10;91.50
4376;DHT22;2202;50.866;12.750;2023-07-31T06:27:35;15.10;91.60
4376;DHT22;2202;50.866;12.750;2023-07-31T06:30:01;15.10;91.10
4376;DHT22;2202;50.866;12.750;2023-07-31T06:32:30;15.20;91.60
4376;DHT22;2202;50.866;12.750;2023-07-31T06:34:58;15.20;91.50
4376;DHT22;2202;50.866;12.750;2023-07-31T06:37:25;15.30;91.10
4376;DHT22;2202;50.866;12.750;2023-07-31T06:39:51;15.30;91.00
4376;DHT22;2202;50.866;12.750;2023-07-31T06:42:18;15.40;90.40
4376;DHT22;2202;50.866;12.750;2023-07-31T06:44:45;15.40;90.30
4376;DHT22;2202;50.866;12.750;2023-07-31T06:47:12;15.40;90.60
4376;DHT22;2202;50.866;12.750;2023-07-31T06:49:39;15.50;90.00
4376;DHT22;2202;50.866;12.750;2023-07-31T06:52:07;15.50;90.10
4376;DHT22;2202;50.866;12.750;2023-07-31T06:54:35;15.60;88.80
4376;DHT22;2202;50.866;12.750;2023-07-31T06:57:02;15.70;89.20
4376;DHT22;2202;50.866;12.750;2023-07-31T06:59:29;15.80;89.60
4376;DHT22;2202;50.866;12.750;2023-07-31T07:01:56;15.90;88.20
4376;DHT22;2202;50.866;12.750;2023-07-31T07:04:22;16.00;88.20
4376;DHT22;2202;50.866;12.750;2023-07-31T07:06:49;16.00;88.20
4376;DHT22;2202;50.866;12.750;2023-07-31T07:09:17;16.00;88.00
4376;DHT22;2202;50.866;12.750;2023-07-31T07:11:45;16.00;87.60
4376;DHT22;2202;50.866;12.750;2023-07-31T07:14:11;16.00;87.20
4376;DHT22;2202;50.866;12.750;2023-07-31T07:16:38;16.00;87.00
4376;DHT22;2202;50.866;12.750;2023-07-31T07:19:06;16.00;87.60
4376;DHT22;2202;50.866;12.750;2023-07-31T07:21:33;16.00;86.60
4376;DHT22;2202;50.866;12.750;2023-07-31T07:24:00;16.10;86.00
4376;DHT22;2202;50.866;12.750;2023-07-31T07:26:28;16.20;86.00
4376;DHT22;2202;50.866;12.750;2023-07-31T07:28:55;16.30;85.00
4376;DHT22;2202;50.866;12.750;2023-07-31T07:31:21;16.30;86.00
4376;DHT22;2202;50.866;12.750;2023-07-31T07:33:48;16.40;83.80
4376;DHT22;2202;50.866;12.750;2023-07-31T07:36:15;16.40;84.00
4376;DHT22;2202;50.866;12.750;2023-07-31T07:38:42;16.50;83.40
4376;DHT22;2202;50.866;12.750;2023-07-31T07:41:09;16.50;84.40
4376;DHT22;2202;50.866;12.750;2023-07-31T07:43:37;16.60;83.40
4376;DHT22;2202;50.866;12.750;2023-07-31T07:46:04;16.60;84.20
4376;DHT22;2202;50.866;12.750;2023-07-31T07:48:30;16.50;83.80
4376;DHT22;2202;50.866;12.750;2023-07-31T07:50:57;16.50;85.20
4376;DHT22;2202;50.866;12.750;2023-07-31T07:53:24;16.60;83.40
4376;DHT22;2202;50.866;12.750;2023-07-31T07:55:51;16.70;82.00
4376;DHT22;2202;50.866;12.750;2023-07-31T07:58:18;16.70;82.60
4376;DHT22;2202;50.866;12.750;2023-07-31T08:00:50;16.70;81.60
4376;DHT22;2202;50.866;12.750;2023-07-31T08:03:17;16.60;82.20
4376;DHT22;2202;50.866;12.750;2023-07-31T08:05:44;16.60;82.80
4376;DHT22;2202;50.866;12.750;2023-07-31T08:08:14;16.60;82.60
4376;DHT22;2202;50.866;12.750;2023-07-31T08:10:41;16.70;82.20
4376;DHT22;2202;50.866;12.750;2023-07-31T08:13:09;16.70;81.60
4376;DHT22;2202;50.866;12.750;2023-07-31T08:15:36;16.70;81.60
4376;DHT22;2202;50.866;12.750;2023-07-31T08:18:05;16.60;82.20
4376;DHT22;2202;50.866;12.750;2023-07-31T08:20:31;16.60;82.60
4376;DHT22;2202;50.866;12.750;2023-07-31T08:22:58;16.60;81.80
4376;DHT22;2202;50.866;12.750;2023-07-31T08:25:25;16.60;82.20
4376;DHT22;2202;50.866;12.750;2023-07-31T08:27:52;16.70;82.20
4376;DHT22;2202;50.866;12.750;2023-07-31T08:30:19;16.80;81.80
4376;DHT22;2202;50.866;12.750;2023-07-31T08:32:46;16.80;81.20
4376;DHT22;2202;50.866;12.750;2023-07-31T08:35:14;16.70;82.00
4376;DHT22;2202;50.866;12.750;2023-07-31T08:37:41;16.70;81.80
4376;DHT22;2202;50.866;12.750;2023-07-31T08:40:09;16.70;82.80
4376;DHT22;2202;50.866;12.750;2023-07-31T08:42:43;16.80;82.00
4376;DHT22;2202;50.866;12.750;2023-07-31T08:45:14;16.80;83.20
4376;DHT22;2202;50.866;12.750;2023-07-31T08:47:42;16.90;82.80
4376;DHT22;2202;50.866;12.750;2023-07-31T08:50:10;16.90;82.00
4376;DHT22;2202;50.866;12.750;2023-07-31T08:52:38;17.00;82.40
4376;DHT22;2202;50.866;12.750;2023-07-31T08:55:06;17.00;80.60
4376;DHT22;2202;50.866;12.750;2023-07-31T08:57:35;16.90;82.00
4376;DHT22;2202;50.866;12.750;2023-07-31T09:00:02;17.00;81.20
4376;DHT22;2202;50.866;12.750;2023-07-31T09:02:35;16.90;82.60
4376;DHT22;2202;50.866;12.750;2023-07-31T09:05:05;17.00;81.40
4376;DHT22;2202;50.866;12.750;2023-07-31T09:07:34;17.00;82.40
4376;DHT22;2202;50.866;12.750;2023-07-31T09:10:03;17.00;81.00
4376;DHT22;2202;50.866;12.750;2023-07-31T09:12:31;17.10;83.20
4376;DHT22;2202;50.866;12.750;2023-07-31T09:14:58;17.10;80.80
4376;DHT22;2202;50.866;12.750;2023-07-31T09:17:29;17.10;82.00
4376;DHT22;2202;50.866;12.750;2023-07-31T09:19:57;17.20;82.40
4376;DHT22;2202;50.866;12.750;2023-07-31T09:22:31;17.30;80.60
4376;DHT22;2202;50.866;12.750;2023-07-31T09:25:14;17.30;79.20
4376;DHT22;2202;50.866;12.750;2023-07-31T09:27:49;17.20;80.60
4376;DHT22;2202;50.866;12.750;2023-07-31T09:30:16;17.20;80.80
4376;DHT22;2202;50.866;12.750;2023-07-31T09:32:44;17.20;81.80
4376;DHT22;2202;50.866;12.750;2023-07-31T09:35:19;17.20;81.20
4376;DHT22;2202;50.866;12.750;2023-07-31T09:37:49;17.30;79.60
4376;DHT22;2202;50.866;12.750;2023-07-31T09:40:29;17.40;80.60
4376;DHT22;2202;50.866;12.750;2023-07-31T09:42:58;17.60;79.00
4376;DHT22;2202;50.866;12.750;2023-07-31T09:45:25;17.70;81.80
4376;DHT22;2202;50.866;12.750;2023-07-31T09:47:53;17.90;79.20
4376;DHT22;2202;50.866;12.750;2023-07-31T09:50:22;18.00;79.40
4376;DHT22;2202;50.866;12.750;2023-07-31T09:52:49;18.00;78.60
4376;DHT22;2202;50.866;12.750;2023-07-31T09:55:16;18.10;79.00
4376;DHT22;2202;50.866;12.750;2023-07-31T09:57:46;18.30;77.60
4376;DHT22;2202;50.866;12.750;2023-07-31T10:00:15;18.40;78.20
4376;DHT22;2202;50.866;12.750;2023-07-31T10:02:44;18.40;76.20
4376;DHT22;2202;50.866;12.750;2023-07-31T10:05:13;18.50;76.40
4376;DHT22;2202;50.866;12.750;2023-07-31T10:07:41;18.50;76.00
4376;DHT22;2202;50.866;12.750;2023-07-31T10:10:09;18.40;76.00
4376;DHT22;2202;50.866;12.750;2023-07-31T10:12:37;18.30;77.20
4376;DHT22;2202;50.866;12.750;2023-07-31T10:15:07;18.20;77.60
4376;DHT22;2202;50.866;12.750;2023-07-31T10:17:35;18.20;77.80
4376;DHT22;2202;50.866;12.750;2023-07-31T10:20:03;18.20;78.80
4376;DHT22;2202;50.866;12.750;2023-07-31T10:22:31;18.10;78.00
4376;DHT22;2202;50.866;12.750;2023-07-31T10:24:59;18.10;79.00
4376;DHT22;2202;50.866;12.750;2023-07-31T10:27:26;18.10;79.80
4376;DHT22;2202;50.866;12.750;2023-07-31T10:29:55;17.90;82.20
4376;DHT22;2202;50.866;12.750;2023-07-31T10:32:25;18.00;84.20
4376;DHT22;2202;50.866;12.750;2023-07-31T10:34:53;18.00;83.20
4376;DHT22;2202;50.866;12.750;2023-07-31T10:37:24;18.20;84.80
4376;DHT22;2202;50.866;12.750;2023-07-31T10:39:57;18.10;85.00
4376;DHT22;2202;50.866;12.750;2023-07-31T10:42:32;18.30;86.40
4376;DHT22;2202;50.866;12.750;2023-07-31T10:45:00;18.50;85.20
4376;DHT22;2202;50.866;12.750;2023-07-31T10:47:29;18.80;82.60
4376;DHT22;2202;50.866;12.750;2023-07-31T10:50:13;18.70;80.80
4376;DHT22;2202;50.866;12.750;2023-07-31T10:52:39;18.80;82.00
4376;DHT22;2202;50.866;12.750;2023-07-31T10:55:14;19.10;78.80
4376;DHT22;2202;50.866;12.750;2023-07-31T10:57:44;19.20;76.60
4376;DHT22;2202;50.866;12.750;2023-07-31T11:00:19;19.30;77.60
4376;DHT22;2202;50.866;12.750;2023-07-31T11:02:58;19.30;77.00
4376;DHT22;2202;50.866;12.750;2023-07-31T11:08:25;19.20;72.80
4376;DHT22;2202;50.866;12.750;2023-07-31T11:11:05;19.20;75.40
4376;DHT22;2202;50.866;12.750;2023-07-31T11:13:34;19.30;74.20
4376;DHT22;2202;50.866;12.750;2023-07-31T11:16:05;19.30;74.40
4376;DHT22;2202;50.866;12.750;2023-07-31T11:18:35;19.30;73.20
4376;DHT22;2202;50.866;12.750;2023-07-31T11:21:02;19.20;72.40
4376;DHT22;2202;50.866;12.750;2023-07-31T11:23:29;19.10;73.20
4376;DHT22;2202;50.866;12.750;2023-07-31T11:25:59;19.10;72.40
4376;DHT22;2202;50.866;12.750;2023-07-31T11:28:31;19.10;72.80
4376;DHT22;2202;50.866;12.750;2023-07-31T11:30:58;19.10;72.00
4376;DHT22;2202;50.866;12.750;2023-07-31T11:33:25;19.10;72.20
4376;DHT22;2202;50.866;12.750;2023-07-31T11:35:53;19.10;73.80
4376;DHT22;2202;50.866;12.750;2023-07-31T11:38:23;19.20;71.80
4376;DHT22;2202;50.866;12.750;2023-07-31T11:40:51;19.20;71.40
4376;DHT22;2202;50.866;12.750;2023-07-31T11:43:19;19.30;72.20
4376;DHT22;2202;50.866;12.750;2023-07-31T11:45:47;19.60;72.40
4376;DHT22;2202;50.866;12.750;2023-07-31T11:48:22;19.70;69.80
4376;DHT22;2202;50.866;12.750;2023-07-31T11:50:51;19.70;69.00
4376;DHT22;2202;50.866;12.750;2023-07-31T11:53:22;19.70;69.40
4376;DHT22;2202;50.866;12.750;2023-07-31T11:55:52;19.70;69.40
4376;DHT22;2202;50.866;12.750;2023-07-31T11:58:19;19.70;68.80
4376;DHT22;2202;50.866;12.750;2023-07-31T12:00:47;19.90;70.20
4376;DHT22;2202;50.866;12.750;2023-07-31T12:03:15;20.00;69.00
4376;DHT22;2202;50.866;12.750;2023-07-31T12:05:42;20.10;68.60
4376;DHT22;2202;50.866;12.750;2023-07-31T12:08:10;20.20;66.40
4376;DHT22;2202;50.866;12.750;2023-07-31T12:10:39;20.20;67.60
4376;DHT22;2202;50.866;12.750;2023-07-31T12:13:09;20.30;65.80
4376;DHT22;2202;50.866;12.750;2023-07-31T12:15:40;20.20;66.20
4376;DHT22;2202;50.866;12.750;2023-07-31T12:18:08;20.20;65.80
4376;DHT22;2202;50.866;12.750;2023-07-31T12:20:40;20.20;64.60
4376;DHT22;2202;50.866;12.750;2023-07-31T12:23:07;20.30;66.20
4376;DHT22;2202;50.866;12.750;2023-07-31T12:25:41;20.50;68.20
4376;DHT22;2202;50.866;12.750;2023-07-31T12:28:08;20.50;65.40
4376;DHT22;2202;50.866;12.750;2023-07-31T12:30:38;20.40;64.00
4376;DHT22;2202;50.866;12.750;2023-07-31T12:33:06;20.20;62.00
4376;DHT22;2202;50.866;12.750;2023-07-31T12:35:37;20.20;62.20
4376;DHT22;2202;50.866;12.750;2023-07-31T12:38:04;20.20;62.20
4376;DHT22;2202;50.866;12.750;2023-07-31T12:40:31;20.10;62.40
4376;DHT22;2202;50.866;12.750;2023-07-31T12:43:01;20.20;63.40
4376;DHT22;2202;50.866;12.750;2023-07-31T12:45:29;20.30;64.00
4376;DHT22;2202;50.866;12.750;2023-07-31T12:47:56;20.40;64.40
4376;DHT22;2202;50.866;12.750;2023-07-31T12:50:23;20.50;62.60
4376;DHT22;2202;50.866;12.750;2023-07-31T12:52:51;20.50;62.40
4376;DHT22;2202;50.866;12.750;2023-07-31T12:55:18;20.50;62.60
4376;DHT22;2202;50.866;12.750;2023-07-31T12:57:45;20.30;64.00
4376;DHT22;2202;50.866;12.750;2023-07-31T13:00:14;20.30;64.00
4376;DHT22;2202;50.866;12.750;2023-07-31T13:02:41;20.40;65.20
4376;DHT22;2202;50.866;12.750;2023-07-31T13:05:08;20.60;63.80
4376;DHT22;2202;50.866;12.750;2023-07-31T13:07:35;20.70;64.60
4376;DHT22;2202;50.866;12.750;2023-07-31T13:10:02;20.80;64.00
4376;DHT22;2202;50.866;12.750;2023-07-31T13:12:29;20.90;64.60
4376;DHT22;2202;50.866;12.750;2023-07-31T13:14:56;20.90;64.60
4376;DHT22;2202;50.866;12.750;2023-07-31T13:17:24;21.00;65.00
4376;DHT22;2202;50.866;12.750;2023-07-31T13:19:51;21.10;62.40
4376;DHT22;2202;50.866;12.750;2023-07-31T13:22:18;21.10;62.60
4376;DHT22;2202;50.866;12.750;2023-07-31T13:24:45;21.20;63.80
4376;DHT22;2202;50.866;12.750;2023-07-31T13:27:12;21.30;62.40
4376;DHT22;2202;50.866;12.750;2023-07-31T13:29:39;21.60;61.80
4376;DHT22;2202;50.866;12.750;2023-07-31T13:32:06;21.80;58.70
4376;DHT22;2202;50.866;12.750;2023-07-31T13:34:34;21.90;58.50
4376;DHT22;2202;50.866;12.750;2023-07-31T13:37:00;21.90;61.60
4376;DHT22;2202;50.866;12.750;2023-07-31T13:39:27;21.90;59.80
4376;DHT22;2202;50.866;12.750;2023-07-31T13:41:54;21.90;60.10
4376;DHT22;2202;50.866;12.750;2023-07-31T13:44:21;21.90;59.00
4376;DHT22;2202;50.866;12.750;2023-07-31T13:46:48;21.80;57.80
4376;DHT22;2202;50.866;12.750;2023-07-31T13:49:14;21.50;59.80
4376;DHT22;2202;50.866;12.750;2023-07-31T13:51:43;21.50;60.60
4376;DHT22;2202;50.866;12.750;2023-07-31T13:54:09;21.30;60.40
4376;DHT22;2202;50.866;12.750;2023-07-31T13:56:37;21.00;60.60
4376;DHT22;2202;50.866;12.750;2023-07-31T13:59:04;20.80;62.20
4376;DHT22;2202;50.866;12.750;2023-07-31T14:01:31;20.80;62.60
4376;DHT22;2202;50.866;12.750;2023-07-31T14:03:58;20.90;66.80
4376;DHT22;2202;50.866;12.750;2023-07-31T14:06:25;21.00;67.40
4376;DHT22;2202;50.866;12.750;2023-07-31T14:08:53;21.10;68.00
4376;DHT22;2202;50.866;12.750;2023-07-31T14:11:21;21.10;65.60
4376;DHT22;2202;50.866;12.750;2023-07-31T14:13:48;21.20;63.00
4376;DHT22;2202;50.866;12.750;2023-07-31T14:16:14;21.40;62.40
4376;DHT22;2202;50.866;12.750;2023-07-31T14:18:41;21.30;60.40
4376;DHT22;2202;50.866;12.750;2023-07-31T14:21:08;21.20;59.80
4376;DHT22;2202;50.866;12.750;2023-07-31T14:23:35;21.10;59.90
4376;DHT22;2202;50.866;12.750;2023-07-31T14:26:03;21.20;59.00
4376;DHT22;2202;50.866;12.750;2023-07-31T14:28:30;21.50;58.00
4376;DHT22;2202;50.866;12.750;2023-07-31T14:30:57;21.70;58.70
4376;DHT22;2202;50.866;12.750;2023-07-31T14:33:24;21.70;56.60
4376;DHT22;2202;50.866;12.750;2023-07-31T14:35:51;21.40;57.60
4376;DHT22;2202;50.866;12.750;2023-07-31T14:38:18;21.10;58.70
4376;DHT22;2202;50.866;12.750;2023-07-31T14:40:45;20.90;60.20
4376;DHT22;2202;50.866;12.750;2023-07-31T14:43:13;20.90;61.00
4376;DHT22;2202;50.866;12.750;2023-07-31T14:45:40;20.80;61.60
4376;DHT22;2202;50.866;12.750;2023-07-31T14:48:07;20.50;61.60
4376;DHT22;2202;50.866;12.750;2023-07-31T14:50:34;20.30;62.60
4376;DHT22;2202;50.866;12.750;2023-07-31T14:53:01;20.20;63.60
4376;DHT22;2202;50.866;12.750;2023-07-31T14:55:28;20.20;64.00
4376;DHT22;2202;50.866;12.750;2023-07-31T14:57:55;20.20;64.80
4376;DHT22;2202;50.866;12.750;2023-07-31T15:00:23;20.10;64.20
4376;DHT22;2202;50.866;12.750;2023-07-31T15:02:50;20.20;64.20
4376;DHT22;2202;50.866;12.750;2023-07-31T15:05:17;20.10;65.00
4376;DHT22;2202;50.866;12.750;2023-07-31T15:07:43;20.10;64.60
4376;DHT22;2202;50.866;12.750;2023-07-31T15:10:10;20.00;64.00
4376;DHT22;2202;50.866;12.750;2023-07-31T15:12:39;19.90;65.40
4376;DHT22;2202;50.866;12.750;2023-07-31T15:15:07;19.80;65.40
4376;DHT22;2202;50.866;12.750;2023-07-31T15:17:35;19.70;65.40
4376;DHT22;2202;50.866;12.750;2023-07-31T15:20:03;19.70;65.80
4376;DHT22;2202;50.866;12.750;2023-07-31T15:22:31;19.60;64.00
4376;DHT22;2202;50.866;12.750;2023-07-31T15:24:58;19.60;64.60
4376;DHT22;2202;50.866;12.750;2023-07-31T15:27:25;19.50;64.20
4376;DHT22;2202;50.866;12.750;2023-07-31T15:29:52;19.50;64.00
4376;DHT22;2202;50.866;12.750;2023-07-31T15:32:19;19.50;64.00
4376;DHT22;2202;50.866;12.750;2023-07-31T15:34:47;19.50;64.40
4376;DHT22;2202;50.866;12.750;2023-07-31T15:37:14;19.50;63.60
4376;DHT22;2202;50.866;12.750;2023-07-31T15:39:42;19.50;63.80
4376;DHT22;2202;50.866;12.750;2023-07-31T15:42:09;19.50;64.60
4376;DHT22;2202;50.866;12.750;2023-07-31T15:44:36;19.60;65.00
4376;DHT22;2202;50.866;12.750;2023-07-31T15:47:04;19.70;64.60
4376;DHT22;2202;50.866;12.750;2023-07-31T15:49:31;19.70;65.00
4376;DHT22;2202;50.866;12.750;2023-07-31T15:51:59;19.60;64.80
4376;DHT22;2202;50.866;12.750;2023-07-31T15:54:26;19.60;66.20